PAOM

Nome Airport

Airport
ICAO code
PAOM
Summary
ICAO Region
NAM
ICAO Territory
Location

Nome,

Coordinates
64° 30' 36" N , 165° 26' 37" W
KCC
Airport BS
Bird Strike
Non Avian Wildlife Hazards to Aircraft
Airport CFIT
Altimeter Temperature Error Correction
Metar
PAOM 251353Z AUTO 04005KT 10SM CLR 02/M02 A2980 RMK AO2 SLP091 T00171017 TSNO

Description

Regional airport serving Nome, Alaska.

Climatology

Subarctic climate (Köppen climate classification Dfc) - long, usually very cold winters, and short, cool to mild summers.

Runways

Designator Length Width Surface Rops
3/21 1700 46 ASP Yes/Yes
10/28 1829 46 ASP Yes/Yes

Airport map

Aerial View

SKYbrary Partners:

Safety knowledge contributed by: